Time;durP1;ratioP1;P1;durP2;ratioP2;P2;SDS_P1;SDS_P2;PMS_P1;PMS_P2;Temp;Humidity;BMP_temperature;BMP_pressure;BME280_temperature;BME280_humidity;BME280_pressure;Samples;Min_cycle;Max_cycle;Signal;HPM_P1;HPM_P2
2022/07/01 00:02:22;;;;;;;2.88;1.80;;;25.00;64.50;;;;;;5033424;28;20383;-68
2022/07/01 00:04:48;;;;;;;2.08;1.60;;;25.00;64.50;;;;;;5033657;28;20399;-67
2022/07/01 00:07:16;;;;;;;2.87;1.60;;;25.00;64.50;;;;;;5033651;28;20474;-67
2022/07/01 00:09:42;;;;;;;2.75;1.58;;;25.00;64.40;;;;;;5033322;28;20879;-67
2022/07/01 00:12:08;;;;;;;2.65;1.77;;;25.00;64.40;;;;;;5033596;28;20401;-68
2022/07/01 00:14:34;;;;;;;2.35;1.67;;;25.00;64.50;;;;;;5015569;28;20529;-67
2022/07/01 00:17:00;;;;;;;2.27;1.70;;;25.00;64.40;;;;;;5015733;28;20402;-68
2022/07/01 00:19:27;;;;;;;2.47;1.67;;;25.00;64.40;;;;;;5033319;28;20732;-68
2022/07/01 00:21:53;;;;;;;2.38;1.60;;;25.00;64.50;;;;;;5032911;28;20444;-69
2022/07/01 00:24:19;;;;;;;2.40;1.70;;;25.00;64.40;;;;;;5015456;28;20395;-68
2022/07/01 00:26:46;;;;;;;2.50;1.80;;;25.00;64.50;;;;;;5011836;28;20413;-68
2022/07/01 00:29:12;;;;;;;2.42;1.77;;;25.00;64.40;;;;;;5013483;28;20396;-68
2022/07/01 00:31:38;;;;;;;2.17;1.40;;;25.00;64.50;;;;;;5011949;28;20814;-67
2022/07/01 00:34:04;;;;;;;2.35;1.60;;;25.00;64.50;;;;;;5013099;28;20802;-68
2022/07/01 00:36:30;;;;;;;1.80;1.50;;;25.00;64.40;;;;;;5013229;28;20393;-68
2022/07/01 00:38:56;;;;;;;2.17;1.50;;;25.00;64.40;;;;;;5013111;28;20907;-68
2022/07/01 00:41:22;;;;;;;2.53;1.53;;;25.00;64.40;;;;;;5013224;28;20408;-68
2022/07/01 00:43:48;;;;;;;2.85;1.40;;;25.00;64.40;;;;;;5011323;28;20401;-67
2022/07/01 00:46:14;;;;;;;1.87;1.37;;;25.00;64.40;;;;;;5012979;28;20456;-68
2022/07/01 00:48:40;;;;;;;2.15;1.48;;;25.00;64.40;;;;;;5011822;28;20395;-68
2022/07/01 00:51:07;;;;;;;1.70;1.48;;;25.00;64.40;;;;;;5012958;28;20420;-68
2022/07/01 00:53:34;;;;;;;2.15;1.50;;;25.00;64.40;;;;;;5012695;28;20451;-68
2022/07/01 00:56:00;;;;;;;2.30;1.60;;;25.00;64.40;;;;;;5010541;28;20409;-68
2022/07/01 00:58:28;;;;;;;2.25;1.55;;;25.00;64.40;;;;;;5012910;28;20451;-68
2022/07/01 01:00:57;;;;;;;2.67;1.52;;;25.00;64.40;;;;;;5013018;28;20388;-68
2022/07/01 01:03:23;;;;;;;2.20;1.50;;;25.00;64.40;;;;;;5012661;28;20399;-69
2022/07/01 01:05:49;;;;;;;1.90;1.40;;;25.00;64.40;;;;;;5011070;28;20487;-68
2022/07/01 01:08:15;;;;;;;2.10;1.40;;;24.90;64.70;;;;;;5009340;28;20464;-68
2022/07/01 01:10:42;;;;;;;2.45;1.50;;;24.90;64.50;;;;;;5011089;28;20424;-68
2022/07/01 01:13:09;;;;;;;2.28;1.50;;;25.00;64.60;;;;;;5012361;28;20396;-68
2022/07/01 01:15:35;;;;;;;2.75;1.60;;;24.90;64.40;;;;;;5004122;28;20500;-68
2022/07/01 01:18:01;;;;;;;1.83;1.30;;;25.00;64.50;;;;;;5011495;28;20476;-68
2022/07/01 01:20:32;;;;;;;3.20;1.52;;;24.90;64.60;;;;;;5008068;28;20492;-68
2022/07/01 01:22:58;;;;;;;2.45;1.50;;;25.00;64.60;;;;;;5007650;28;20440;-68
2022/07/01 01:25:24;;;;;;;1.95;1.42;;;24.90;64.60;;;;;;5006924;28;20793;-68
2022/07/01 01:27:50;;;;;;;2.08;1.67;;;24.90;64.50;;;;;;5007765;28;20537;-68
2022/07/01 01:30:16;;;;;;;3.50;1.33;;;24.90;64.50;;;;;;5010057;28;20495;-67
2022/07/01 01:32:42;;;;;;;1.90;1.40;;;24.90;64.50;;;;;;5008244;28;21047;-68
2022/07/01 01:35:09;;;;;;;2.40;1.35;;;24.90;64.50;;;;;;5006187;28;20930;-69
2022/07/01 01:37:35;;;;;;;1.85;1.55;;;24.90;64.50;;;;;;5010129;28;20424;-69
2022/07/01 01:40:01;;;;;;;2.33;1.60;;;24.90;64.50;;;;;;5007262;28;20417;-68
2022/07/01 01:42:27;;;;;;;2.10;1.42;;;24.90;64.50;;;;;;5005836;28;20393;-69
2022/07/01 01:44:54;;;;;;;1.80;1.50;;;24.90;64.50;;;;;;5006883;28;20450;-69
2022/07/01 01:47:20;;;;;;;2.13;1.60;;;24.90;64.50;;;;;;5008228;28;20384;-68
2022/07/01 01:49:45;;;;;;;1.80;1.60;;;24.90;64.50;;;;;;5010082;28;20393;-68
2022/07/01 01:52:11;;;;;;;2.53;1.55;;;24.90;64.60;;;;;;5007295;28;20915;-68
2022/07/01 01:54:37;;;;;;;1.80;1.50;;;24.90;64.50;;;;;;5007935;28;20504;-67
2022/07/01 01:57:06;;;;;;;1.70;1.60;;;24.90;64.50;;;;;;5008753;28;20447;-68
2022/07/01 01:59:31;;;;;;;2.85;1.70;;;24.90;64.50;;;;;;5006643;28;20910;-68
2022/07/01 02:01:57;;;;;;;1.50;1.40;;;24.90;64.60;;;;;;5007045;28;20392;-69
2022/07/01 02:04:23;;;;;;;2.50;1.70;;;24.90;64.50;;;;;;5007543;28;20385;-69
2022/07/01 02:06:50;;;;;;;2.08;1.60;;;24.90;64.50;;;;;;5007365;28;20393;-69
2022/07/01 02:09:16;;;;;;;3.00;1.67;;;24.90;64.50;;;;;;5008404;28;20772;-68
2022/07/01 02:11:42;;;;;;;2.60;1.80;;;24.90;64.50;;;;;;5006917;28;20427;-69
2022/07/01 02:14:08;;;;;;;2.50;1.70;;;24.80;64.60;;;;;;5008894;28;20424;-68
2022/07/01 02:16:33;;;;;;;2.60;2.00;;;24.80;64.50;;;;;;5012078;28;20407;-68
2022/07/01 02:18:59;;;;;;;2.42;1.77;;;24.90;64.70;;;;;;5013339;28;20376;-68
2022/07/01 02:21:25;;;;;;;1.92;1.63;;;24.80;64.60;;;;;;5014159;28;20393;-68
2022/07/01 02:23:52;;;;;;;2.13;1.80;;;24.80;64.50;;;;;;5010884;28;20416;-67
2022/07/01 02:26:18;;;;;;;1.88;1.70;;;24.80;64.50;;;;;;5026540;28;20419;-68
2022/07/01 02:28:44;;;;;;;2.30;1.60;;;24.80;64.50;;;;;;5033213;28;20387;-69
2022/07/01 02:31:10;;;;;;;2.40;1.80;;;24.90;64.60;;;;;;5032576;28;20414;-68
2022/07/01 02:33:35;;;;;;;2.27;1.70;;;24.80;64.50;;;;;;5036346;28;20394;-69
2022/07/01 02:36:01;;;;;;;1.80;1.60;;;24.80;64.50;;;;;;5015284;28;20465;-68
2022/07/01 02:38:27;;;;;;;1.87;1.57;;;24.80;64.60;;;;;;5033393;28;20816;-68
2022/07/01 02:40:52;;;;;;;1.92;1.70;;;24.80;64.50;;;;;;5030510;28;20402;-68
2022/07/01 02:43:18;;;;;;;1.90;1.67;;;24.80;64.50;;;;;;5033205;28;20381;-68
2022/07/01 02:45:44;;;;;;;1.77;1.67;;;24.80;64.50;;;;;;5031053;28;20403;-68
2022/07/01 02:48:09;;;;;;;3.00;1.90;;;24.80;64.50;;;;;;5035413;28;20879;-69
2022/07/01 02:50:35;;;;;;;2.83;1.87;;;24.80;64.50;;;;;;5015532;28;20468;-69
2022/07/01 02:53:01;;;;;;;2.00;1.70;;;24.80;64.50;;;;;;5032324;28;20395;-67
2022/07/01 02:55:28;;;;;;;2.30;1.80;;;24.80;64.50;;;;;;5032726;28;20764;-69
2022/07/01 02:57:54;;;;;;;2.57;1.80;;;24.80;64.50;;;;;;5034454;28;20926;-68
2022/07/01 03:00:22;;;;;;;2.25;1.67;;;24.80;64.60;;;;;;5015614;28;20429;-69
2022/07/01 03:02:48;;;;;;;2.00;1.80;;;24.80;64.50;;;;;;5021400;28;20428;-68
2022/07/01 03:05:14;;;;;;;2.00;1.80;;;24.80;64.50;;;;;;5015988;28;20392;-68
2022/07/01 03:07:39;;;;;;;2.88;1.70;;;24.80;64.50;;;;;;5023966;28;20387;-68
2022/07/01 03:10:07;;;;;;;2.20;1.70;;;24.80;64.50;;;;;;5044562;28;20395;-68
2022/07/01 03:12:36;;;;;;;2.00;1.80;;;24.80;65.00;;;;;;5037313;28;20405;-68
2022/07/01 03:15:06;;;;;;;1.90;1.70;;;24.80;65.00;;;;;;5037408;28;20490;-68
2022/07/01 03:17:33;;;;;;;3.30;2.08;;;24.80;65.60;;;;;;5020318;28;20403;-66
2022/07/01 03:20:00;;;;;;;4.90;2.30;;;24.80;67.00;;;;;;5036892;28;20387;-68
2022/07/01 03:22:28;;;;;;;5.57;2.50;;;24.90;67.70;;;;;;5037449;28;20438;-66
2022/07/01 03:24:55;;;;;;;4.00;2.25;;;24.90;67.80;;;;;;5037325;28;20414;-68
2022/07/01 03:27:21;;;;;;;3.25;2.30;;;24.90;66.80;;;;;;5037330;28;20413;-68
2022/07/01 03:29:47;;;;;;;4.20;2.33;;;24.90;68.80;;;;;;5033023;28;20387;-68
2022/07/01 03:32:13;;;;;;;3.23;2.27;;;25.00;68.70;;;;;;5033037;28;20435;-68
2022/07/01 03:34:40;;;;;;;3.88;2.50;;;25.00;69.10;;;;;;5016411;28;20387;-69
2022/07/01 03:37:08;;;;;;;3.70;2.38;;;25.10;69.50;;;;;;5033242;28;20391;-69
2022/07/01 03:39:35;;;;;;;4.25;2.22;;;25.10;69.60;;;;;;5032877;28;20379;-68
2022/07/01 03:42:02;;;;;;;3.22;2.17;;;25.10;69.50;;;;;;5033160;28;20390;-68
2022/07/01 03:44:27;;;;;;;3.20;2.25;;;25.10;69.70;;;;;;5032680;28;20387;-69
2022/07/01 03:46:55;;;;;;;4.27;2.17;;;25.10;69.40;;;;;;5033250;28;20518;-69
2022/07/01 03:49:21;;;;;;;3.40;2.20;;;25.10;70.20;;;;;;5033597;28;20513;-69
2022/07/01 03:51:46;;;;;;;4.10;2.30;;;25.10;68.60;;;;;;5033311;28;20426;-69
2022/07/01 03:54:30;;;;;;;4.53;2.30;;;25.10;68.90;;;;;;5015486;28;20473;-68
2022/07/01 03:57:06;;;;;;;3.10;2.28;;;25.10;69.90;;;;;;5033216;28;20751;-68
2022/07/01 03:59:37;;;;;;;5.85;2.08;;;25.10;68.20;;;;;;5033477;28;20747;-69
2022/07/01 04:02:04;;;;;;;5.57;2.10;;;25.10;68.00;;;;;;5033308;28;20394;-68
2022/07/01 04:04:30;;;;;;;5.68;2.20;;;25.00;67.80;;;;;;5015828;28;20402;-68
2022/07/01 04:06:58;;;;;;;5.93;1.92;;;25.00;67.50;;;;;;5033602;28;20387;-68
2022/07/01 04:09:26;;;;;;;5.38;1.65;;;25.00;67.50;;;;;;5033498;28;20395;-68
2022/07/01 04:11:52;;;;;;;2.60;1.50;;;25.00;66.20;;;;;;5032999;28;20423;-68
2022/07/01 04:14:18;;;;;;;3.50;1.67;;;25.00;65.60;;;;;;5033139;28;20532;-69
2022/07/01 04:16:44;;;;;;;3.72;1.92;;;24.90;65.10;;;;;;5033348;28;20930;-69
2022/07/01 04:19:11;;;;;;;6.72;1.90;;;24.90;65.60;;;;;;5033095;28;20394;-69
2022/07/01 04:24:24;;;;;;;4.70;2.10;;;24.90;64.80;;;;;;5033523;28;20386;-69
2022/07/01 04:26:51;;;;;;;4.25;1.83;;;24.90;65.20;;;;;;5015223;28;20422;-69
2022/07/01 04:29:17;;;;;;;3.80;1.65;;;24.90;65.10;;;;;;5033036;28;20410;-68
2022/07/01 04:31:43;;;;;;;2.38;1.63;;;24.90;65.20;;;;;;5015210;28;20426;-69
2022/07/01 04:34:09;;;;;;;3.80;1.90;;;24.90;65.10;;;;;;5035058;28;20381;-68
2022/07/01 04:36:35;;;;;;;3.78;1.75;;;24.90;65.10;;;;;;5034924;28;20887;-68
2022/07/01 04:39:02;;;;;;;3.88;1.67;;;24.90;65.00;;;;;;5032378;28;20852;-69
2022/07/01 04:44:12;;;;;;;2.67;1.55;;;24.80;65.70;;;;;;5032263;28;20402;-68
2022/07/01 04:46:38;;;;;;;2.83;1.60;;;24.80;65.10;;;;;;5013972;28;20403;-68
2022/07/01 04:49:04;;;;;;;4.30;2.50;;;24.80;65.00;;;;;;5032589;28;20751;-69
2022/07/01 04:51:30;;;;;;;4.22;2.13;;;24.90;67.40;;;;;;5014367;28;20419;-69
2022/07/01 04:53:56;;;;;;;4.63;2.03;;;24.90;67.80;;;;;;5032200;28;20387;-68
2022/07/01 04:56:22;;;;;;;4.50;2.20;;;24.90;67.30;;;;;;5014345;28;20413;-67
2022/07/01 04:58:48;;;;;;;3.70;2.10;;;25.00;67.10;;;;;;5014704;28;20392;-68
2022/07/01 05:01:13;;;;;;;5.10;2.00;;;25.00;67.10;;;;;;5032378;28;20446;-69
2022/07/01 05:03:39;;;;;;;4.78;2.03;;;25.00;67.20;;;;;;5032181;28;20414;-68
2022/07/01 05:06:05;;;;;;;2.97;1.80;;;25.00;66.70;;;;;;5031441;28;20397;-68
2022/07/01 05:08:31;;;;;;;3.40;1.90;;;25.00;66.50;;;;;;5032166;28;20387;-69
2022/07/01 05:10:56;;;;;;;3.20;1.83;;;24.90;66.30;;;;;;5014260;28;20415;-68
2022/07/01 05:13:23;;;;;;;5.05;2.20;;;24.90;66.00;;;;;;5014388;28;20410;-68
2022/07/01 05:15:48;;;;;;;4.03;2.00;;;24.90;66.00;;;;;;5032022;28;20767;-68
2022/07/01 05:23:42;;;;;;;4.68;2.00;;;24.90;65.70;;;;;;5031744;28;20410;-69
2022/07/01 05:26:08;;;;;;;3.53;2.00;;;24.90;65.60;;;;;;5031248;28;20802;-68
2022/07/01 05:28:33;;;;;;;4.17;2.00;;;24.90;65.50;;;;;;5031815;28;20391;-69
2022/07/01 05:30:59;;;;;;;3.35;2.03;;;24.90;65.40;;;;;;5031749;28;20533;-68
2022/07/01 05:33:28;;;;;;;2.70;1.63;;;24.90;65.30;;;;;;5031712;28;20391;-67
2022/07/01 05:35:54;;;;;;;3.15;1.88;;;24.80;65.30;;;;;;5031652;28;20406;-67
2022/07/01 05:38:19;;;;;;;2.67;1.90;;;24.90;65.40;;;;;;5031204;28;20383;-67
2022/07/01 05:40:45;;;;;;;2.37;1.80;;;24.80;65.10;;;;;;5031454;28;20914;-67
2022/07/01 05:43:11;;;;;;;2.42;1.67;;;24.80;65.10;;;;;;5031548;28;20748;-67
2022/07/01 05:45:37;;;;;;;2.50;1.80;;;24.80;65.00;;;;;;5013844;28;20911;-67
2022/07/01 05:48:03;;;;;;;3.67;1.67;;;24.80;65.10;;;;;;5031044;28;20402;-66
2022/07/01 05:50:28;;;;;;;2.63;2.03;;;24.80;65.30;;;;;;5030993;28;20403;-69
2022/07/01 05:52:54;;;;;;;3.47;2.00;;;24.80;65.20;;;;;;5030977;28;20559;-67
2022/07/01 05:55:20;;;;;;;2.20;1.60;;;24.80;65.10;;;;;;5031456;28;20394;-67
2022/07/01 05:57:46;;;;;;;2.70;1.80;;;24.80;65.10;;;;;;5031248;28;20427;-67
2022/07/01 06:00:12;;;;;;;3.30;1.70;;;24.80;65.10;;;;;;5031329;28;20394;-66
2022/07/01 06:02:38;;;;;;;2.90;1.77;;;24.80;65.00;;;;;;5031202;28;20542;-67
2022/07/01 06:05:04;;;;;;;2.30;1.80;;;24.80;65.00;;;;;;5031402;28;20989;-68
2022/07/01 06:07:30;;;;;;;3.65;1.60;;;24.80;65.00;;;;;;5013581;28;20395;-67
2022/07/01 06:09:56;;;;;;;1.90;1.50;;;24.80;65.00;;;;;;5031093;28;20387;-67
2022/07/01 06:12:22;;;;;;;1.98;1.63;;;24.80;64.90;;;;;;5031073;28;20974;-67
2022/07/01 06:14:48;;;;;;;2.53;2.10;;;24.80;64.90;;;;;;5031329;28;20390;-68
2022/07/01 06:17:14;;;;;;;2.17;1.80;;;24.80;64.90;;;;;;5031754;28;20399;-66
2022/07/01 06:19:40;;;;;;;3.33;1.70;;;24.80;64.80;;;;;;5031582;28;20410;-67
2022/07/01 06:22:06;;;;;;;2.90;1.85;;;24.80;64.90;;;;;;5031645;28;20791;-67
2022/07/01 06:24:32;;;;;;;2.65;1.73;;;24.80;65.00;;;;;;5030802;28;20392;-68
2022/07/01 06:26:57;;;;;;;3.17;1.80;;;24.80;64.90;;;;;;5013230;28;20419;-68
2022/07/01 06:29:23;;;;;;;2.53;1.90;;;24.80;65.00;;;;;;5031113;28;20395;-67
2022/07/01 06:31:49;;;;;;;2.17;1.88;;;24.80;65.50;;;;;;5030909;28;20771;-68
2022/07/01 06:34:15;;;;;;;2.13;1.70;;;24.80;64.90;;;;;;5030519;28;20391;-68
2022/07/01 06:36:40;;;;;;;3.13;1.90;;;24.80;64.90;;;;;;5030909;28;20399;-68
2022/07/01 06:39:06;;;;;;;2.30;1.90;;;24.80;64.90;;;;;;5031043;28;20380;-68
2022/07/01 06:41:32;;;;;;;2.07;1.87;;;24.80;65.00;;;;;;5031030;28;20395;-68
2022/07/01 06:43:59;;;;;;;2.33;1.90;;;24.80;65.00;;;;;;5030752;28;20517;-67
2022/07/01 06:46:26;;;;;;;3.70;2.03;;;24.80;64.90;;;;;;5012964;28;20767;-68
2022/07/01 06:48:51;;;;;;;2.20;1.92;;;24.80;64.90;;;;;;5030769;28;20403;-67
2022/07/01 06:51:18;;;;;;;2.40;1.90;;;24.80;64.90;;;;;;5030770;28;20422;-68
2022/07/01 06:53:44;;;;;;;2.50;1.90;;;24.80;65.00;;;;;;5030965;28;20441;-67
2022/07/01 06:56:11;;;;;;;2.17;1.98;;;24.80;64.90;;;;;;5033214;28;20395;-69
2022/07/01 06:58:37;;;;;;;2.03;1.65;;;24.80;64.90;;;;;;5030974;28;20380;-67
2022/07/01 07:01:03;;;;;;;2.40;2.03;;;24.80;64.90;;;;;;5031648;28;20391;-67
2022/07/01 07:03:29;;;;;;;2.15;1.95;;;24.80;64.90;;;;;;5034157;28;20481;-67
2022/07/01 07:05:55;;;;;;;2.22;1.95;;;24.80;64.80;;;;;;5035698;28;20456;-68
2022/07/01 07:08:21;;;;;;;2.47;1.90;;;24.80;64.90;;;;;;5015961;28;20777;-65
2022/07/01 07:10:46;;;;;;;1.70;1.60;;;24.80;64.90;;;;;;5034437;28;20410;-67
2022/07/01 07:13:12;;;;;;;2.33;1.90;;;24.80;64.90;;;;;;5034531;28;20458;-68
2022/07/01 07:15:41;;;;;;;2.92;1.60;;;24.80;64.80;;;;;;5034382;28;20926;-68
2022/07/01 07:18:07;;;;;;;2.00;1.70;;;24.70;64.80;;;;;;5033840;28;20394;-66
2022/07/01 07:20:34;;;;;;;2.13;1.88;;;24.80;64.90;;;;;;5033925;28;20383;-69
2022/07/01 07:22:59;;;;;;;2.08;1.75;;;24.70;64.80;;;;;;5016483;28;20891;-68
2022/07/01 07:25:25;;;;;;;3.00;1.80;;;24.70;64.60;;;;;;5033925;28;20419;-68
2022/07/01 07:27:51;;;;;;;3.63;1.85;;;24.70;64.50;;;;;;5034297;28;20991;-69
2022/07/01 07:30:17;;;;;;;2.65;1.70;;;24.70;65.00;;;;;;5033626;28;20477;-69
2022/07/01 07:32:43;;;;;;;2.33;1.87;;;24.70;64.20;;;;;;5034049;28;20470;-66
2022/07/01 07:35:09;;;;;;;2.75;1.70;;;24.70;64.20;;;;;;5034074;28;20383;-68
2022/07/01 07:37:35;;;;;;;3.00;1.70;;;24.70;64.20;;;;;;5016207;28;20400;-68
2022/07/01 07:40:03;;;;;;;2.87;1.77;;;24.70;64.10;;;;;;5033859;28;20398;-68
2022/07/01 07:42:29;;;;;;;2.00;1.50;;;24.70;64.20;;;;;;5033542;28;20489;-68
2022/07/01 07:44:55;;;;;;;2.40;1.80;;;24.70;64.20;;;;;;5016134;28;20391;-68
2022/07/01 07:47:21;;;;;;;2.23;1.67;;;24.70;64.20;;;;;;5033737;28;20391;-68
2022/07/01 07:49:46;;;;;;;1.90;1.70;;;24.70;64.20;;;;;;5033735;28;20470;-68
2022/07/01 07:52:12;;;;;;;2.07;1.70;;;24.70;64.10;;;;;;5033184;28;20765;-67
2022/07/01 07:54:38;;;;;;;2.72;1.52;;;24.70;64.10;;;;;;5033448;28;20391;-68
2022/07/01 07:57:05;;;;;;;2.03;1.70;;;24.70;64.10;;;;;;5033755;28;20394;-68
2022/07/01 07:59:31;;;;;;;1.88;1.50;;;24.70;64.20;;;;;;5033347;28;20951;-68
2022/07/01 08:01:56;;;;;;;2.53;1.80;;;24.70;64.10;;;;;;5015955;28;20483;-68
2022/07/01 08:04:22;;;;;;;2.08;1.70;;;24.70;64.20;;;;;;5032999;28;20867;-68
2022/07/01 08:06:48;;;;;;;2.00;1.80;;;24.70;64.10;;;;;;5033500;28;20874;-68
2022/07/01 08:09:14;;;;;;;2.65;1.98;;;24.70;64.10;;;;;;5033224;28;20860;-68
2022/07/01 08:11:39;;;;;;;3.07;1.40;;;24.60;64.10;;;;;;5033923;28;20537;-68
2022/07/01 08:14:05;;;;;;;2.05;1.73;;;24.70;64.10;;;;;;5032376;28;20387;-67
2022/07/01 08:16:31;;;;;;;1.80;1.57;;;24.60;64.70;;;;;;5032872;28;20459;-68
2022/07/01 08:18:56;;;;;;;2.40;1.83;;;24.70;64.10;;;;;;5033180;28;20391;-68
2022/07/01 08:21:22;;;;;;;1.90;1.70;;;24.70;64.10;;;;;;5015536;28;20529;-68
2022/07/01 08:23:48;;;;;;;2.80;1.65;;;24.70;64.10;;;;;;5033004;28;20798;-68
2022/07/01 08:26:15;;;;;;;1.60;1.47;;;24.70;64.10;;;;;;5031898;28;20492;-67
2022/07/01 08:28:41;;;;;;;1.83;1.53;;;24.70;64.00;;;;;;5032848;28;20837;-67
2022/07/01 08:31:07;;;;;;;2.55;1.50;;;24.60;64.00;;;;;;5032896;28;20493;-68
2022/07/01 08:33:33;;;;;;;2.10;1.70;;;24.70;64.00;;;;;;5032780;28;20609;-68
2022/07/01 08:35:58;;;;;;;2.20;1.70;;;24.70;64.00;;;;;;5032832;28;20387;-68
2022/07/01 08:38:24;;;;;;;1.83;1.63;;;24.70;64.00;;;;;;5032183;28;20383;-68
2022/07/01 08:40:50;;;;;;;2.13;1.93;;;24.70;64.00;;;;;;5032621;28;20414;-68
2022/07/01 08:43:16;;;;;;;2.80;1.65;;;24.70;64.00;;;;;;5032435;28;20386;-69
2022/07/01 08:45:42;;;;;;;2.43;1.80;;;24.70;64.00;;;;;;5032886;28;20860;-68
2022/07/01 08:48:08;;;;;;;2.08;1.65;;;24.70;64.00;;;;;;5032618;28;20387;-68
2022/07/01 08:50:39;;;;;;;2.30;1.60;;;24.70;64.10;;;;;;5032859;28;20430;-69
2022/07/01 08:53:06;;;;;;;1.90;1.70;;;24.70;64.00;;;;;;5014864;28;20383;-68
2022/07/01 08:55:32;;;;;;;1.80;1.70;;;24.70;64.00;;;;;;5032451;28;20491;-69
2022/07/01 08:57:58;;;;;;;1.80;1.70;;;24.70;64.00;;;;;;5032241;28;20398;-69
2022/07/01 09:00:33;;;;;;;1.92;1.77;;;24.70;63.90;;;;;;5011934;28;20392;-68
2022/07/01 09:03:00;;;;;;;2.10;1.73;;;24.70;64.00;;;;;;5029403;28;20910;-68
2022/07/01 09:05:27;;;;;;;2.27;1.80;;;24.70;64.00;;;;;;5031904;28;20473;-68
2022/07/01 09:08:02;;;;;;;1.80;1.70;;;24.70;63.90;;;;;;5031813;28;20474;-69
2022/07/01 09:10:31;;;;;;;1.70;1.60;;;24.70;63.90;;;;;;5031548;28;20453;-68
2022/07/01 09:13:03;;;;;;;2.15;1.60;;;24.70;63.90;;;;;;5031596;28;20498;-68
2022/07/01 09:15:30;;;;;;;1.67;1.52;;;24.70;63.80;;;;;;5031545;28;20395;-69
2022/07/01 09:18:05;;;;;;;2.00;1.53;;;24.70;64.40;;;;;;5031022;28;20764;-67
2022/07/01 09:20:37;;;;;;;1.80;1.55;;;24.70;63.80;;;;;;5028905;28;20398;-67
2022/07/01 09:23:22;;;;;;;3.00;1.70;;;24.70;63.90;;;;;;5029202;28;20391;-66
2022/07/01 09:25:50;;;;;;;1.67;1.58;;;24.70;63.90;;;;;;5027979;28;20473;-67
2022/07/01 09:28:25;;;;;;;1.63;1.40;;;24.70;63.70;;;;;;5031255;28;20387;-67
2022/07/01 09:30:53;;;;;;;1.73;1.50;;;24.70;63.60;;;;;;5031673;28;20410;-68
2022/07/01 09:33:29;;;;;;;2.30;1.70;;;24.70;63.90;;;;;;5091953;22;20433;-68
2022/07/01 09:35:55;;;;;;;2.53;1.40;;;24.70;63.80;;;;;;5051015;28;20476;-68
2022/07/01 09:38:24;;;;;;;1.80;1.45;;;24.70;63.90;;;;;;5050896;28;20512;-68
2022/07/01 09:40:58;;;;;;;2.22;1.60;;;24.70;63.90;;;;;;5050437;28;20401;-67
2022/07/01 09:43:34;;;;;;;2.13;1.70;;;24.70;64.00;;;;;;5044057;28;20393;-68
2022/07/01 09:46:08;;;;;;;1.80;1.40;;;24.80;64.20;;;;;;5042321;28;20387;-68
2022/07/01 09:48:34;;;;;;;2.00;1.70;;;24.80;64.00;;;;;;5042025;28;20417;-68
2022/07/01 09:51:04;;;;;;;2.35;1.88;;;24.70;64.00;;;;;;5032737;28;20867;-68
2022/07/01 09:53:30;;;;;;;2.65;1.33;;;24.70;64.00;;;;;;5031306;28;20791;-68
2022/07/01 09:55:56;;;;;;;1.65;1.20;;;24.80;64.10;;;;;;5031148;28;20395;-69
2022/07/01 09:58:22;;;;;;;2.03;1.40;;;24.80;64.00;;;;;;5030883;28;20779;-68
2022/07/01 10:00:51;;;;;;;2.17;1.40;;;24.80;63.90;;;;;;5031345;28;20387;-68
2022/07/01 10:03:18;;;;;;;2.67;1.58;;;24.80;63.90;;;;;;5031173;28;20399;-68
2022/07/01 10:06:05;;;;;;;1.98;1.30;;;24.80;63.90;;;;;;5013511;28;20752;-70
2022/07/01 10:08:57;;;;;;;1.85;1.38;;;24.70;63.80;;;;;;5022966;28;20459;-68
2022/07/01 10:11:46;;;;;;;1.48;1.38;;;24.80;63.90;;;;;;5033576;28;20474;-68
2022/07/01 10:14:14;;;;;;;1.95;1.55;;;24.70;63.80;;;;;;5033137;28;20393;-68
2022/07/01 10:16:40;;;;;;;1.67;1.40;;;24.70;63.90;;;;;;5050824;28;20393;-68
2022/07/01 10:19:30;;;;;;;1.50;1.30;;;24.70;63.80;;;;;;5051068;28;20447;-68
2022/07/01 10:22:20;;;;;;;1.90;1.33;;;24.70;63.90;;;;;;5039077;28;20398;-68
2022/07/01 10:24:47;;;;;;;1.70;1.38;;;24.70;63.90;;;;;;5032879;28;20723;-68
2022/07/01 10:27:23;;;;;;;1.65;1.55;;;24.70;63.90;;;;;;5051043;28;20397;-69
2022/07/01 10:30:09;;;;;;;1.50;1.40;;;24.70;63.90;;;;;;5050861;28;20385;-68
2022/07/01 10:32:51;;;;;;;1.67;1.45;;;24.70;63.90;;;;;;5050240;28;20437;-68
2022/07/01 10:35:17;;;;;;;2.10;1.58;;;24.70;63.80;;;;;;5050965;28;20746;-68
2022/07/01 10:38:01;;;;;;;1.50;1.40;;;24.70;63.90;;;;;;5052265;28;20420;-68
2022/07/01 10:40:47;;;;;;;1.60;1.50;;;24.70;63.80;;;;;;5054602;28;20919;-68
2022/07/01 10:43:33;;;;;;;1.70;1.60;;;24.70;63.80;;;;;;5054896;28;20385;-68
2022/07/01 10:45:59;;;;;;;1.50;1.40;;;24.70;63.80;;;;;;5054818;28;20431;-68
2022/07/01 10:48:25;;;;;;;1.50;1.37;;;24.70;63.80;;;;;;5054503;28;20406;-68
2022/07/01 10:50:52;;;;;;;1.90;1.70;;;24.70;63.80;;;;;;5054708;28;20408;-68
2022/07/01 10:53:18;;;;;;;1.77;1.58;;;24.70;63.80;;;;;;5054791;28;20458;-68
2022/07/01 10:55:45;;;;;;;1.50;1.40;;;24.70;63.90;;;;;;5054617;28;20464;-68
2022/07/01 10:58:11;;;;;;;2.10;1.80;;;24.70;63.80;;;;;;5054586;28;20436;-68
2022/07/01 11:00:41;;;;;;;2.22;2.03;;;24.70;64.00;;;;;;5054155;28;20420;-66
2022/07/01 11:03:11;;;;;;;3.42;2.30;;;24.60;63.90;;;;;;5056857;28;20382;-69
2022/07/01 11:05:37;;;;;;;3.60;2.10;;;24.60;64.20;;;;;;5054480;28;20392;-68
2022/07/01 11:08:06;;;;;;;2.28;1.80;;;24.50;63.80;;;;;;5054374;28;20825;-67
2022/07/01 11:10:32;;;;;;;2.55;1.40;;;24.50;63.60;;;;;;5053566;28;20885;-67
2022/07/01 11:13:02;;;;;;;2.33;1.60;;;24.50;63.10;;;;;;5039282;28;20544;-67
2022/07/01 11:15:29;;;;;;;2.50;2.10;;;24.50;63.50;;;;;;5054178;28;20381;-69
2022/07/01 11:17:57;;;;;;;21.90;14.50;;;24.50;63.70;;;;;;5044983;28;20391;-68
2022/07/01 11:20:24;;;;;;;35.42;25.75;;;24.60;63.50;;;;;;5033705;28;20490;-68
2022/07/01 11:22:50;;;;;;;46.65;30.33;;;24.60;63.20;;;;;;5054188;28;20393;-69
2022/07/01 11:25:18;;;;;;;44.30;29.23;;;24.60;62.90;;;;;;5054994;28;20949;-68
2022/07/01 11:27:49;;;;;;;50.97;31.70;;;24.50;62.60;;;;;;5053532;28;20417;-68
2022/07/01 11:30:16;;;;;;;53.70;30.15;;;24.50;62.10;;;;;;5031599;28;21156;-67
2022/07/01 11:32:48;;;;;;;47.72;26.38;;;24.50;61.90;;;;;;5053503;28;20440;-67
2022/07/01 11:41:26;;;;;;;88.97;49.70;;;24.50;62.60;;;;;;5012114;28;20381;-68
2022/07/01 11:43:53;;;;;;;73.30;43.35;;;24.60;62.80;;;;;;4995183;28;20404;-68
2022/07/01 11:46:19;;;;;;;71.90;42.92;;;24.60;63.00;;;;;;5028376;28;20397;-68
2022/07/01 11:48:53;;;;;;;77.50;45.35;;;24.60;63.10;;;;;;5033580;28;20466;-69
2022/07/01 11:51:24;;;;;;;77.65;42.40;;;24.60;62.70;;;;;;5035402;28;20413;-68
2022/07/01 11:53:52;;;;;;;62.70;37.87;;;24.60;63.20;;;;;;5035418;28;21004;-69
2022/07/01 11:56:35;;;;;;;61.67;36.13;;;24.70;63.40;;;;;;5035175;28;20397;-68
2022/07/01 11:59:02;;;;;;;64.07;37.28;;;24.70;63.50;;;;;;5048976;28;20440;-69
2022/07/01 12:01:40;;;;;;;58.08;34.35;;;24.60;62.50;;;;;;5051943;28;20393;-69
2022/07/01 12:04:08;;;;;;;53.15;31.90;;;24.70;63.20;;;;;;5047766;28;20468;-68
2022/07/01 12:06:35;;;;;;;50.45;31.73;;;24.70;63.00;;;;;;5034271;28;20406;-68
2022/07/01 12:09:02;;;;;;;47.43;29.40;;;24.70;63.00;;;;;;5053594;28;20465;-68
2022/07/01 12:11:29;;;;;;;46.80;29.67;;;24.70;62.90;;;;;;5051691;28;20421;-68
2022/07/01 12:13:59;;;;;;;47.63;29.45;;;24.70;63.10;;;;;;5033778;28;20424;-68
2022/07/01 12:16:25;;;;;;;44.83;27.70;;;24.60;63.10;;;;;;5048655;28;20390;-67
2022/07/01 12:19:01;;;;;;;43.60;27.20;;;24.60;63.10;;;;;;5051775;28;20428;-68
2022/07/01 12:21:28;;;;;;;44.20;26.90;;;24.60;63.00;;;;;;5049334;28;20385;-68
2022/07/01 12:24:24;;;;;;;40.07;25.20;;;24.70;63.10;;;;;;5051574;28;20385;-68
2022/07/01 12:27:12;;;;;;;36.67;22.77;;;24.70;63.10;;;;;;5034408;28;20991;-68
2022/07/01 12:29:47;;;;;;;37.47;23.70;;;24.70;62.80;;;;;;5049797;28;20508;-68
2022/07/01 12:32:43;;;;;;;35.28;22.25;;;24.70;63.00;;;;;;5049629;28;20487;-69
2022/07/01 12:35:33;;;;;;;37.05;22.10;;;24.70;62.90;;;;;;5048896;28;20420;-67
2022/07/01 12:37:55;;;;;;;34.83;21.70;;;24.70;63.40;;;;;;5048161;28;20760;-68
2022/07/01 12:40:24;;;;;;;35.47;21.33;;;24.80;63.30;;;;;;5050906;28;20468;-67
2022/07/01 12:42:50;;;;;;;32.78;20.40;;;24.80;63.50;;;;;;5050622;28;20390;-68
2022/07/01 12:45:22;;;;;;;35.88;20.20;;;24.80;63.10;;;;;;5050927;28;20393;-69
2022/07/01 12:47:50;;;;;;;30.88;19.10;;;24.80;63.60;;;;;;5048860;28;20404;-69
2022/07/01 12:50:38;;;;;;;31.48;18.75;;;24.80;63.20;;;;;;5051877;28;20392;-68
2022/07/01 12:53:05;;;;;;;27.83;17.60;;;24.80;63.50;;;;;;5051339;28;20408;-68
2022/07/01 12:55:39;;;;;;;26.35;16.75;;;24.90;63.30;;;;;;5032926;28;20393;-69
2022/07/01 12:58:23;;;;;;;26.55;16.02;;;24.90;63.30;;;;;;5048485;28;20397;-69
2022/07/01 13:00:51;;;;;;;24.70;15.50;;;24.90;63.40;;;;;;5048242;28;20409;-70
2022/07/01 13:03:22;;;;;;;24.13;14.83;;;24.90;63.30;;;;;;5053196;28;20393;-71
2022/07/01 13:05:49;;;;;;;23.85;15.00;;;24.90;63.20;;;;;;5048201;28;20911;-69